createdAt,value
2023-05-19T00:01:28.351Z,19.60
2023-05-19T00:03:59.133Z,26.50
2023-05-19T00:06:31.953Z,18.90
2023-05-19T00:09:03.778Z,18.30
2023-05-19T00:11:32.156Z,24.70
2023-05-19T00:14:00.943Z,17.70
2023-05-19T00:16:31.354Z,19.60
2023-05-19T00:19:02.062Z,18.90
2023-05-19T00:21:31.836Z,19.40
2023-05-19T00:24:00.207Z,17.10
2023-05-19T00:26:28.613Z,17.90
2023-05-19T00:29:01.184Z,22.80
2023-05-19T00:31:30.335Z,19.60
2023-05-19T00:33:58.784Z,18.70
2023-05-19T00:36:27.273Z,17.50
2023-05-19T00:38:57.560Z,14.70
2023-05-19T00:41:26.477Z,17.70
2023-05-19T00:43:55.320Z,21.90
2023-05-19T00:46:23.996Z,18.60
2023-05-19T00:48:52.664Z,26.90
2023-05-19T00:51:22.007Z,19.50
2023-05-19T00:53:52.289Z,23.70
2023-05-19T00:56:21.976Z,17.80
2023-05-19T00:58:52.037Z,20.90
2023-05-19T01:01:21.938Z,23.30
2023-05-19T01:03:51.620Z,27.20
2023-05-19T01:06:21.106Z,17.20
2023-05-19T01:08:51.748Z,22.40
2023-05-19T01:11:20.210Z,23.80
2023-05-19T01:13:48.797Z,30.30
2023-05-19T01:16:43.940Z,22.50
2023-05-19T01:19:30.892Z,18.60
2023-05-19T01:22:28.034Z,23.20
2023-05-19T01:25:08.095Z,21.10
2023-05-19T01:28:22.729Z,18.70
2023-05-19T01:30:56.335Z,20.80
2023-05-19T01:33:25.306Z,19.20
2023-05-19T01:35:56.888Z,24.80
2023-05-19T01:38:26.340Z,21.10
2023-05-19T01:40:56.458Z,23.90
2023-05-19T01:43:27.459Z,28.80
2023-05-19T01:45:58.748Z,22.10
2023-05-19T01:48:30.065Z,18.50
2023-05-19T01:50:59.514Z,20.50
2023-05-19T01:53:27.688Z,25.30
2023-05-19T01:55:57.611Z,21.20
2023-05-19T01:58:47.468Z,26.20
2023-05-19T02:01:31.463Z,22.20
2023-05-19T02:04:18.744Z,25.30
2023-05-19T02:06:59.681Z,18.90
2023-05-19T02:09:38.991Z,22.60
2023-05-19T02:12:29.026Z,27.60
2023-05-19T02:15:11.704Z,25.10
2023-05-19T02:17:43.210Z,25.10
2023-05-19T02:20:11.987Z,26.10
2023-05-19T02:22:40.740Z,17.50
2023-05-19T02:25:09.820Z,20.70
2023-05-19T02:27:39.738Z,22.50
2023-05-19T02:30:09.942Z,30.80
2023-05-19T02:32:38.561Z,26.10
2023-05-19T02:35:07.380Z,24.70
2023-05-19T02:37:35.963Z,28.90
2023-05-19T02:40:05.183Z,26.40
2023-05-19T02:42:33.448Z,32.40
2023-05-19T02:45:01.875Z,26.80
2023-05-19T02:47:30.557Z,29.30
2023-05-19T02:49:59.035Z,33.00
2023-05-19T02:52:27.299Z,32.20
2023-05-19T02:54:55.581Z,27.60
2023-05-19T02:57:24.338Z,24.40
2023-05-19T02:59:53.057Z,28.40
2023-05-19T03:02:21.481Z,32.10
2023-05-19T03:04:50.354Z,35.30
2023-05-19T03:07:18.820Z,31.80
2023-05-19T03:09:47.217Z,38.20
2023-05-19T03:12:15.492Z,39.60
2023-05-19T03:14:44.591Z,35.30
2023-05-19T03:17:12.733Z,36.20
2023-05-19T03:19:41.676Z,32.10
2023-05-19T03:22:10.260Z,32.00
2023-05-19T03:24:39.688Z,32.40
2023-05-19T03:27:09.079Z,33.00
2023-05-19T03:29:38.488Z,31.70
2023-05-19T03:32:07.433Z,34.40
2023-05-19T03:34:35.875Z,35.90
2023-05-19T03:37:04.660Z,33.20
2023-05-19T03:39:33.159Z,43.60
2023-05-19T03:42:01.532Z,30.70
2023-05-19T03:44:30.233Z,31.90
2023-05-19T03:47:01.182Z,50.90
2023-05-19T03:50:09.986Z,36.60
2023-05-19T03:53:04.856Z,39.60
2023-05-19T03:55:39.422Z,39.30
2023-05-19T03:58:07.872Z,35.40
2023-05-19T04:00:38.099Z,36.00
2023-05-19T04:03:06.534Z,41.20
2023-05-19T04:05:35.476Z,39.50
2023-05-19T04:08:06.974Z,32.90
2023-05-19T04:10:39.345Z,36.50
2023-05-19T04:13:07.598Z,41.60
2023-05-19T04:15:36.629Z,37.50
2023-05-19T04:18:04.986Z,50.80
2023-05-19T04:20:34.814Z,50.20
2023-05-19T04:23:04.817Z,35.80
2023-05-19T04:25:33.920Z,33.60
2023-05-19T04:28:03.287Z,35.70
2023-05-19T04:30:32.635Z,37.40
2023-05-19T04:33:01.499Z,38.60
2023-05-19T04:35:30.653Z,50.20
2023-05-19T04:38:00.222Z,42.70
2023-05-19T04:40:31.651Z,42.10
2023-05-19T04:43:02.406Z,40.80
2023-05-19T04:45:33.344Z,41.30
2023-05-19T04:48:03.364Z,30.70
2023-05-19T04:50:32.800Z,33.50
2023-05-19T04:53:01.751Z,41.20
2023-05-19T04:55:30.291Z,34.40
2023-05-19T04:57:59.188Z,36.70
2023-05-19T05:00:27.777Z,29.40
2023-05-19T05:03:00.934Z,35.00
2023-05-19T05:05:31.092Z,39.00
2023-05-19T05:07:59.807Z,37.30
2023-05-19T05:10:29.787Z,35.00
2023-05-19T05:12:58.891Z,37.50
2023-05-19T05:15:29.022Z,27.20
2023-05-19T05:17:58.087Z,32.30
2023-05-19T05:20:27.477Z,37.00
2023-05-19T05:22:57.881Z,33.40
2023-05-19T05:25:27.475Z,36.80
2023-05-19T05:27:56.069Z,46.90
2023-05-19T05:30:24.959Z,38.80
2023-05-19T05:33:03.946Z,34.80
2023-05-19T05:35:41.195Z,34.60
2023-05-19T05:38:12.013Z,34.00
2023-05-19T05:40:41.118Z,32.70
2023-05-19T05:43:09.744Z,30.70
2023-05-19T05:45:42.908Z,45.40
2023-05-19T05:48:15.266Z,30.40
2023-05-19T05:50:45.609Z,26.00
2023-05-19T05:53:20.911Z,28.70
2023-05-19T05:55:51.787Z,26.70
2023-05-19T05:58:22.826Z,30.70
2023-05-19T06:00:53.766Z,30.60
2023-05-19T06:03:24.876Z,31.90
2023-05-19T06:06:02.195Z,30.80
2023-05-19T06:08:33.552Z,31.50
2023-05-19T06:11:10.946Z,31.30
2023-05-19T06:13:51.851Z,28.00
2023-05-19T06:16:35.996Z,36.00
2023-05-19T06:19:08.555Z,26.90
2023-05-19T06:21:37.346Z,32.70
2023-05-19T06:24:07.077Z,31.80
2023-05-19T06:26:35.755Z,28.70
2023-05-19T06:29:10.004Z,27.70
2023-05-19T06:31:39.043Z,33.50
2023-05-19T06:34:16.676Z,27.10
2023-05-19T06:36:45.274Z,21.80
2023-05-19T06:39:14.044Z,30.90
2023-05-19T06:41:42.574Z,28.60
2023-05-19T06:44:11.038Z,26.30
2023-05-19T06:46:39.441Z,27.30
2023-05-19T06:49:07.892Z,28.80
2023-05-19T06:51:39.150Z,28.80
2023-05-19T06:54:07.542Z,27.80
2023-05-19T06:56:36.626Z,33.40
2023-05-19T06:59:05.013Z,32.30
2023-05-19T07:01:36.762Z,23.50
2023-05-19T07:04:06.038Z,25.50
2023-05-19T07:06:34.322Z,27.90
2023-05-19T07:09:05.345Z,21.10
2023-05-19T07:11:35.009Z,21.90
2023-05-19T07:14:03.511Z,21.50
2023-05-19T07:16:32.776Z,23.30
2023-05-19T07:19:01.377Z,35.70
2023-05-19T07:21:30.100Z,26.50
2023-05-19T07:23:59.912Z,21.00
2023-05-19T07:26:29.728Z,27.90
2023-05-19T07:28:58.084Z,21.20
2023-05-19T07:31:26.758Z,17.60
2023-05-19T07:33:55.294Z,16.40
2023-05-19T07:36:23.474Z,26.20
2023-05-19T07:38:51.995Z,20.00
2023-05-19T07:41:21.898Z,22.10
2023-05-19T07:43:50.155Z,28.70
2023-05-19T07:46:18.847Z,27.60
2023-05-19T07:48:47.472Z,15.30
2023-05-19T07:51:16.441Z,19.90
2023-05-19T07:53:44.853Z,12.00
2023-05-19T07:56:13.304Z,17.50
2023-05-19T07:58:42.306Z,11.90
2023-05-19T08:01:10.791Z,19.80
2023-05-19T08:03:39.331Z,11.40
2023-05-19T08:06:07.660Z,11.10
2023-05-19T08:08:36.148Z,33.30
2023-05-19T08:11:05.160Z,18.60
2023-05-19T08:13:34.814Z,21.30
2023-05-19T08:16:04.169Z,12.50
2023-05-19T08:18:32.656Z,12.60
2023-05-19T08:21:03.943Z,26.30
2023-05-19T08:23:32.707Z,17.00
2023-05-19T08:26:02.378Z,17.40
2023-05-19T08:28:31.122Z,11.00
2023-05-19T08:30:59.467Z,14.50
2023-05-19T08:33:28.392Z,13.90
2023-05-19T08:35:58.430Z,14.40
2023-05-19T08:38:26.903Z,12.70
2023-05-19T08:40:58.130Z,11.90
2023-05-19T08:43:26.742Z,10.90
2023-05-19T08:45:55.737Z,9.40
2023-05-19T08:48:24.364Z,13.20
2023-05-19T08:50:59.666Z,11.80
2023-05-19T08:53:36.895Z,17.90
2023-05-19T08:56:11.576Z,25.40
2023-05-19T08:58:41.569Z,18.40
2023-05-19T09:01:13.849Z,17.00
2023-05-19T09:03:43.499Z,14.70
2023-05-19T09:06:15.160Z,24.30
2023-05-19T09:08:44.050Z,15.40
2023-05-19T09:11:12.880Z,9.40
2023-05-19T09:13:41.147Z,9.40
2023-05-19T09:16:09.740Z,8.60
2023-05-19T09:18:41.266Z,17.80
2023-05-19T09:21:11.388Z,11.20
2023-05-19T09:23:39.871Z,16.70
2023-05-19T09:26:08.341Z,11.00
2023-05-19T09:28:38.108Z,8.90
2023-05-19T09:31:10.195Z,8.10
2023-05-19T09:33:45.930Z,14.60
2023-05-19T09:36:14.835Z,10.50
2023-05-19T09:38:43.037Z,13.30
2023-05-19T09:41:14.885Z,11.30
2023-05-19T09:43:56.403Z,12.80
2023-05-19T09:46:28.728Z,8.20
2023-05-19T09:48:58.715Z,8.00
2023-05-19T09:51:26.895Z,10.90
2023-05-19T09:53:55.301Z,11.60
2023-05-19T09:56:26.215Z,10.60
2023-05-19T09:58:54.815Z,8.20
2023-05-19T10:01:23.631Z,11.00
2023-05-19T10:03:53.768Z,10.80
2023-05-19T10:06:22.569Z,9.80
2023-05-19T10:08:53.028Z,9.00
2023-05-19T10:11:23.698Z,10.80
2023-05-19T10:13:52.400Z,14.80
2023-05-19T10:16:23.316Z,15.60
2023-05-19T10:18:53.242Z,6.90
2023-05-19T10:21:21.652Z,11.80
2023-05-19T10:23:50.374Z,18.40
2023-05-19T10:26:19.968Z,9.70
2023-05-19T10:28:50.163Z,8.30
2023-05-19T10:31:23.756Z,9.10
2023-05-19T10:34:30.631Z,11.30
2023-05-19T10:37:25.234Z,16.80
2023-05-19T10:39:53.850Z,7.20
2023-05-19T10:42:37.057Z,12.20
2023-05-19T10:47:46.711Z,7.60
2023-05-19T10:50:15.764Z,14.10
2023-05-19T10:52:44.933Z,9.10
2023-05-19T10:55:17.898Z,12.00
2023-05-19T10:57:58.750Z,7.60
2023-05-19T11:00:28.481Z,13.80
2023-05-19T11:03:16.554Z,7.40
2023-05-19T11:05:51.132Z,8.50
2023-05-19T11:08:33.742Z,10.20
2023-05-19T11:13:56.270Z,8.50
2023-05-19T11:16:29.736Z,6.00
2023-05-19T11:19:01.168Z,7.60
2023-05-19T11:21:44.065Z,10.50
2023-05-19T11:24:37.241Z,8.00
2023-05-19T11:29:52.056Z,5.70
2023-05-19T11:32:22.059Z,7.10
2023-05-19T11:34:50.601Z,11.90
2023-05-19T11:37:19.061Z,7.30
2023-05-19T11:39:47.884Z,4.40
2023-05-19T11:42:16.723Z,7.80
2023-05-19T11:44:48.599Z,5.70
2023-05-19T11:47:17.584Z,4.80
2023-05-19T11:49:49.093Z,8.40
2023-05-19T11:52:17.410Z,6.60
2023-05-19T11:54:48.908Z,5.10
2023-05-19T11:57:17.649Z,9.70
2023-05-19T11:59:48.351Z,6.90
2023-05-19T12:02:26.333Z,11.30
2023-05-19T12:05:00.811Z,9.10
2023-05-19T12:07:32.130Z,10.30
2023-05-19T12:10:00.829Z,9.90
2023-05-19T12:12:29.930Z,10.10
2023-05-19T12:14:58.643Z,9.20
2023-05-19T12:17:28.196Z,12.40
2023-05-19T12:19:56.823Z,9.90
2023-05-19T12:22:25.612Z,9.00
2023-05-19T12:24:57.790Z,14.80
2023-05-19T12:27:29.146Z,7.80
2023-05-19T12:30:00.799Z,12.90
2023-05-19T12:32:29.336Z,9.80
2023-05-19T12:34:57.760Z,6.80
2023-05-19T12:37:33.526Z,8.70
2023-05-19T12:40:03.786Z,6.70
2023-05-19T12:42:32.238Z,11.90
2023-05-19T12:45:03.392Z,9.00
2023-05-19T12:47:36.308Z,13.70
2023-05-19T12:50:11.621Z,5.70
2023-05-19T12:52:48.288Z,8.40
2023-05-19T12:55:17.294Z,10.80
2023-05-19T12:57:51.643Z,8.80
2023-05-19T13:00:22.687Z,11.70
2023-05-19T13:03:07.972Z,16.50
2023-05-19T13:05:43.804Z,7.80
2023-05-19T13:08:21.713Z,8.10
2023-05-19T13:10:50.067Z,11.80
2023-05-19T13:13:18.561Z,14.30
2023-05-19T13:15:49.206Z,9.90
2023-05-19T13:18:18.594Z,10.00
2023-05-19T13:20:50.346Z,20.20
2023-05-19T13:23:19.464Z,20.60
2023-05-19T13:25:48.803Z,7.50
2023-05-19T13:28:17.982Z,17.20
2023-05-19T13:30:46.699Z,19.00
2023-05-19T13:33:15.317Z,13.80
2023-05-19T13:35:43.565Z,8.20
2023-05-19T13:38:12.016Z,7.30
2023-05-19T13:40:40.852Z,8.60
2023-05-19T13:43:10.015Z,8.20
2023-05-19T13:45:38.909Z,24.70
2023-05-19T13:48:07.819Z,16.00
2023-05-19T13:50:36.804Z,8.80
2023-05-19T13:53:05.602Z,10.70
2023-05-19T13:55:36.258Z,16.60
2023-05-19T13:58:04.414Z,16.30
2023-05-19T14:00:33.025Z,12.50
2023-05-19T14:03:01.768Z,11.80
2023-05-19T14:05:31.341Z,19.40
2023-05-19T14:08:01.266Z,14.40
2023-05-19T14:10:29.705Z,16.90
2023-05-19T14:18:01.429Z,7.70
2023-05-19T14:20:30.596Z,17.00
2023-05-19T14:22:59.314Z,6.60
2023-05-19T14:25:27.704Z,6.30
2023-05-19T14:27:56.491Z,6.60
2023-05-19T14:30:25.181Z,7.70
2023-05-19T14:32:53.800Z,12.40
2023-05-19T14:35:23.292Z,4.30
2023-05-19T14:37:51.870Z,6.10
2023-05-19T14:40:20.281Z,10.70
2023-05-19T14:42:48.653Z,13.10
2023-05-19T14:45:18.353Z,10.20
2023-05-19T14:47:47.706Z,12.60
2023-05-19T14:50:16.449Z,4.40
2023-05-19T14:52:44.864Z,6.60
2023-05-19T14:55:13.038Z,8.20
2023-05-19T14:57:43.885Z,5.10
2023-05-19T15:00:15.311Z,10.70
2023-05-19T15:02:47.579Z,8.60
2023-05-19T15:05:16.484Z,10.60
2023-05-19T15:07:44.965Z,11.30
2023-05-19T15:10:13.414Z,5.60
2023-05-19T15:12:41.525Z,10.00
2023-05-19T15:15:10.623Z,6.60
2023-05-19T15:17:39.465Z,10.00
2023-05-19T15:20:08.418Z,11.70
2023-05-19T15:22:37.021Z,7.20
2023-05-19T15:25:06.096Z,8.30
2023-05-19T15:27:37.468Z,6.80
2023-05-19T15:30:06.631Z,7.80
2023-05-19T15:32:34.952Z,13.00
2023-05-19T15:35:03.448Z,12.20
2023-05-19T15:37:31.887Z,8.80
2023-05-19T15:40:00.446Z,9.70
2023-05-19T15:42:28.861Z,8.30
2023-05-19T15:44:57.324Z,6.70
2023-05-19T15:47:26.482Z,7.80
2023-05-19T15:49:55.182Z,5.00
2023-05-19T15:52:23.875Z,12.40
2023-05-19T15:54:52.360Z,8.90
2023-05-19T15:57:20.677Z,9.90
2023-05-19T15:59:49.127Z,14.00
2023-05-19T16:02:17.537Z,8.00
2023-05-19T16:04:46.116Z,10.60
2023-05-19T16:07:14.488Z,9.70
2023-05-19T16:09:42.918Z,9.70
2023-05-19T16:12:11.456Z,6.40
2023-05-19T16:14:39.848Z,10.20
2023-05-19T16:17:11.736Z,14.40
2023-05-19T16:19:40.200Z,14.30
2023-05-19T16:22:08.480Z,12.90
2023-05-19T16:24:37.272Z,7.20
2023-05-19T16:27:06.177Z,9.70
2023-05-19T16:29:34.774Z,9.20
2023-05-19T16:32:05.268Z,10.20
2023-05-19T16:34:33.810Z,11.60
2023-05-19T16:37:05.339Z,13.30
2023-05-19T16:39:38.325Z,11.30
2023-05-19T16:42:06.807Z,8.70
2023-05-19T16:44:35.346Z,12.50
2023-05-19T16:47:05.034Z,8.70
2023-05-19T16:49:34.338Z,11.00
2023-05-19T16:52:02.501Z,10.40
2023-05-19T16:54:30.615Z,6.60
2023-05-19T16:56:59.070Z,9.70
2023-05-19T16:59:27.446Z,9.20
2023-05-19T17:01:57.044Z,14.70
2023-05-19T17:04:25.403Z,11.10
2023-05-19T17:06:53.703Z,8.70
2023-05-19T17:09:25.356Z,10.00
2023-05-19T17:11:54.282Z,12.80
2023-05-19T17:14:22.680Z,11.20
2023-05-19T17:16:52.764Z,7.30
2023-05-19T17:19:21.681Z,10.40
2023-05-19T17:21:50.581Z,11.40
2023-05-19T17:24:19.477Z,10.80
2023-05-19T17:26:47.910Z,9.30
2023-05-19T17:29:16.360Z,13.70
2023-05-19T17:31:44.736Z,10.80
2023-05-19T17:34:12.915Z,9.70
2023-05-19T17:36:41.298Z,16.00
2023-05-19T17:39:09.576Z,9.30
2023-05-19T17:41:37.775Z,8.00
2023-05-19T17:44:06.998Z,9.70
2023-05-19T17:46:35.355Z,11.40
2023-05-19T17:49:05.718Z,15.80
2023-05-19T17:51:34.144Z,14.90
2023-05-19T17:54:03.110Z,10.90
2023-05-19T17:56:34.433Z,10.90
2023-05-19T17:59:03.413Z,10.40
2023-05-19T18:01:32.588Z,13.00
2023-05-19T18:04:01.613Z,13.80
2023-05-19T18:06:31.767Z,22.80
2023-05-19T18:09:03.559Z,16.00
2023-05-19T18:11:31.900Z,13.10
2023-05-19T18:14:00.366Z,13.40
2023-05-19T18:16:29.765Z,21.40
2023-05-19T18:18:58.300Z,28.00
2023-05-19T18:21:27.280Z,20.40
2023-05-19T18:23:55.857Z,15.90
2023-05-19T18:26:26.942Z,13.90
2023-05-19T18:28:57.015Z,15.00
2023-05-19T18:31:25.839Z,10.50
2023-05-19T18:33:54.396Z,15.40
2023-05-19T18:36:23.647Z,13.70
2023-05-19T18:38:51.903Z,10.40
2023-05-19T18:41:20.083Z,11.80
2023-05-19T18:43:48.861Z,14.30
2023-05-19T18:46:21.223Z,13.10
2023-05-19T18:48:50.891Z,13.70
2023-05-19T18:51:21.495Z,15.30
2023-05-19T18:53:50.958Z,15.80
2023-05-19T18:56:25.305Z,16.40
2023-05-19T18:59:05.827Z,24.80
2023-05-19T19:04:08.099Z,17.60
2023-05-19T19:06:38.889Z,12.90
2023-05-19T19:09:10.103Z,14.50
2023-05-19T19:11:39.212Z,17.60
2023-05-19T19:14:07.906Z,15.60
2023-05-19T19:16:36.876Z,16.90
2023-05-19T19:19:05.290Z,15.50
2023-05-19T19:21:34.126Z,12.30
2023-05-19T19:24:02.839Z,16.00
2023-05-19T19:26:31.509Z,17.40
2023-05-19T19:29:02.417Z,13.40
2023-05-19T19:31:33.464Z,13.90
2023-05-19T19:34:05.900Z,10.80
2023-05-19T19:36:34.197Z,10.80
2023-05-19T19:39:07.076Z,17.80
2023-05-19T19:41:50.159Z,9.90
2023-05-19T19:44:18.764Z,14.30
2023-05-19T19:46:56.659Z,14.00
2023-05-19T19:49:28.111Z,13.60
2023-05-19T19:51:57.221Z,12.20
2023-05-19T19:54:25.900Z,16.10
2023-05-19T19:56:54.077Z,16.00
2023-05-19T19:59:25.275Z,16.40
2023-05-19T20:01:54.576Z,18.60
2023-05-19T20:04:23.189Z,17.40
2023-05-19T20:06:51.816Z,13.80
2023-05-19T20:09:20.008Z,13.50
2023-05-19T20:11:54.198Z,19.00
2023-05-19T20:14:22.389Z,19.90
2023-05-19T20:16:51.048Z,15.00
2023-05-19T20:19:22.102Z,12.70
2023-05-19T20:21:52.769Z,13.30
2023-05-19T20:24:21.705Z,14.90
2023-05-19T20:26:50.077Z,12.80
2023-05-19T20:29:18.834Z,14.40
2023-05-19T20:31:48.250Z,14.70
2023-05-19T20:34:16.683Z,14.10
2023-05-19T20:36:44.952Z,13.70
2023-05-19T20:39:13.419Z,14.50
2023-05-19T20:41:41.555Z,16.90
2023-05-19T20:44:12.387Z,14.70
2023-05-19T20:46:40.936Z,17.40
2023-05-19T20:49:09.729Z,13.60
2023-05-19T20:51:38.037Z,14.50
2023-05-19T20:54:07.600Z,15.40
2023-05-19T20:56:36.015Z,13.30
2023-05-19T20:59:04.277Z,17.80
2023-05-19T21:01:32.893Z,12.80
2023-05-19T21:04:01.477Z,17.10
2023-05-19T21:06:29.776Z,13.50
2023-05-19T21:08:58.006Z,12.10
2023-05-19T21:11:26.700Z,16.50
2023-05-19T21:13:56.430Z,12.50
2023-05-19T21:16:24.897Z,16.90
2023-05-19T21:18:54.844Z,13.30
2023-05-19T21:21:23.142Z,23.30
2023-05-19T21:23:51.976Z,15.90
2023-05-19T21:26:22.528Z,14.70
2023-05-19T21:28:51.302Z,12.40
2023-05-19T21:31:21.872Z,15.50
2023-05-19T21:33:52.496Z,13.60
2023-05-19T21:36:20.902Z,15.80
2023-05-19T21:38:49.263Z,18.50
2023-05-19T21:41:17.516Z,13.60
2023-05-19T21:43:47.221Z,18.70
2023-05-19T21:46:15.623Z,13.90
2023-05-19T21:48:44.145Z,12.60
2023-05-19T21:51:13.954Z,18.80
2023-05-19T21:53:42.149Z,18.50
2023-05-19T21:56:10.411Z,16.20
2023-05-19T21:58:38.799Z,13.30
2023-05-19T22:01:08.314Z,15.70
2023-05-19T22:03:38.477Z,16.50
2023-05-19T22:06:08.459Z,18.70
2023-05-19T22:08:36.589Z,20.90
2023-05-19T22:11:05.491Z,17.30
2023-05-19T22:13:34.228Z,24.20
2023-05-19T22:16:04.914Z,14.00
2023-05-19T22:18:33.277Z,18.90
2023-05-19T22:21:02.303Z,19.80
2023-05-19T22:23:31.358Z,16.40
2023-05-19T22:25:59.868Z,19.00
2023-05-19T22:28:28.416Z,14.50
2023-05-19T22:30:57.121Z,15.10
2023-05-19T22:33:25.280Z,16.00
2023-05-19T22:35:53.676Z,17.40
2023-05-19T22:38:22.157Z,18.90
2023-05-19T22:40:50.365Z,13.10
2023-05-19T22:43:18.828Z,13.00
2023-05-19T22:45:47.042Z,11.30
2023-05-19T22:48:16.417Z,16.50
2023-05-19T22:50:44.936Z,13.40
2023-05-19T22:53:13.203Z,16.60
2023-05-19T22:55:41.358Z,17.70
2023-05-19T22:58:09.493Z,20.20
2023-05-19T23:00:37.722Z,18.90
2023-05-19T23:03:06.191Z,14.50
2023-05-19T23:05:34.831Z,19.50
2023-05-19T23:08:03.622Z,19.10
2023-05-19T23:10:31.971Z,21.30
2023-05-19T23:13:00.184Z,17.80
2023-05-19T23:15:28.573Z,17.00
2023-05-19T23:17:56.750Z,17.70
2023-05-19T23:20:25.165Z,16.20
2023-05-19T23:22:53.607Z,11.90
2023-05-19T23:25:21.975Z,18.80
2023-05-19T23:27:53.304Z,19.30
2023-05-19T23:30:21.906Z,14.70
2023-05-19T23:32:50.209Z,14.60
2023-05-19T23:35:20.167Z,15.40
2023-05-19T23:37:48.449Z,14.30
2023-05-19T23:40:16.995Z,12.70
2023-05-19T23:42:45.142Z,13.50
2023-05-19T23:45:13.351Z,18.50
2023-05-19T23:47:41.940Z,16.60
2023-05-19T23:50:10.944Z,12.90
2023-05-19T23:52:39.218Z,16.30
2023-05-19T23:55:08.598Z,18.30
2023-05-19T23:57:36.738Z,13.90
